Time;durP1;ratioP1;P1;durP2;ratioP2;P2;SDS_P1;SDS_P2;PMS_P1;PMS_P2;Temp;Humidity;BMP_temperature;BMP_pressure;BME280_temperature;BME280_humidity;BME280_pressure;Samples;Min_cycle;Max_cycle;Signal;HPM_P1;HPM_P2
2022/12/30 00:01:00;;;;;;;1.90;1.00;;;9.20;99.90;;;;;;6228999;28;20050;-82
2022/12/30 00:04:01;;;;;;;4.25;1.42;;;9.20;99.90;;;;;;6229749;28;20389;-83
2022/12/30 00:07:03;;;;;;;2.30;1.10;;;9.10;99.90;;;;;;6229222;28;20053;-82
2022/12/30 00:10:07;;;;;;;1.58;0.93;;;9.10;99.90;;;;;;6230159;28;20050;-82
2022/12/30 06:19:39;;;;;;;2.50;1.60;;;3.60;99.90;;;;;;6229404;22;20050;-81
2022/12/30 06:22:40;;;;;;;3.63;1.30;;;3.50;99.90;;;;;;6228946;28;20045;-80
2022/12/30 06:25:43;;;;;;;5.32;2.05;;;3.40;99.90;;;;;;6228469;28;20077;-81
2022/12/30 06:28:44;;;;;;;5.90;1.77;;;3.40;99.90;;;;;;6228135;28;20038;-80
2022/12/30 06:31:46;;;;;;;4.20;2.15;;;3.40;99.90;;;;;;6230202;28;20046;-81
2022/12/30 06:34:50;;;;;;;3.15;2.00;;;3.30;99.90;;;;;;6229016;28;20049;-81
2022/12/30 06:37:52;;;;;;;2.78;2.08;;;3.30;99.90;;;;;;6228204;28;20093;-81
2022/12/30 06:40:54;;;;;;;6.90;2.10;;;3.30;99.90;;;;;;6223116;28;20407;-80
2022/12/30 06:43:55;;;;;;;5.72;3.15;;;3.30;99.90;;;;;;6228287;28;20046;-80
2022/12/30 06:46:57;;;;;;;2.70;2.08;;;3.20;99.90;;;;;;6227514;28;20045;-80
2022/12/30 06:50:00;;;;;;;3.55;2.72;;;3.20;99.90;;;;;;6232163;28;20065;-81
2022/12/30 06:53:02;;;;;;;3.65;1.90;;;3.20;99.90;;;;;;6228034;28;20061;-80
2022/12/30 06:56:04;;;;;;;6.13;2.25;;;3.20;99.90;;;;;;6229589;28;20045;-79
2022/12/30 06:59:05;;;;;;;2.22;1.80;;;3.20;99.90;;;;;;6228419;28;20050;-80
2022/12/30 07:02:07;;;;;;;5.35;1.70;;;3.20;99.90;;;;;;6228559;28;20054;-79
2022/12/30 07:05:10;;;;;;;4.90;2.83;;;3.10;99.90;;;;;;6228038;28;20065;-80
2022/12/30 07:08:12;;;;;;;3.63;2.08;;;3.10;99.90;;;;;;6228923;28;20052;-79
2022/12/30 07:11:14;;;;;;;3.80;2.17;;;3.10;99.90;;;;;;6228964;28;20042;-80
2022/12/30 07:14:15;;;;;;;2.28;2.08;;;3.00;99.90;;;;;;6227929;28;20053;-80
2022/12/30 07:17:17;;;;;;;2.80;1.60;;;3.00;99.90;;;;;;6229053;28;20068;-80
2022/12/30 07:20:20;;;;;;;5.38;1.40;;;3.00;99.90;;;;;;6227842;28;20052;-80
2022/12/30 07:23:22;;;;;;;6.15;2.40;;;2.90;99.90;;;;;;6228367;28;20049;-80
2022/12/30 07:26:23;;;;;;;7.63;2.25;;;3.00;99.90;;;;;;6229602;28;20101;-81
2022/12/30 07:29:25;;;;;;;10.77;2.75;;;3.00;99.90;;;;;;6228752;28;20050;-81
2022/12/30 07:32:27;;;;;;;7.35;2.60;;;3.00;99.90;;;;;;6229202;28;20754;-81
2022/12/30 07:35:30;;;;;;;5.68;3.22;;;3.10;99.90;;;;;;6229897;28;20046;-80
2022/12/30 07:38:32;;;;;;;3.10;2.53;;;3.10;99.90;;;;;;6228438;28;20495;-80
2022/12/30 07:41:33;;;;;;;4.93;2.67;;;3.20;99.90;;;;;;6229972;28;20061;-80
2022/12/30 07:44:37;;;;;;;4.45;2.55;;;3.20;99.90;;;;;;6229528;28;20351;-81
2022/12/30 07:47:38;;;;;;;6.93;2.05;;;3.20;99.90;;;;;;6240453;28;20058;-81
2022/12/30 07:50:41;;;;;;;4.60;3.15;;;3.20;99.90;;;;;;6233267;28;20046;-81
2022/12/30 07:53:44;;;;;;;4.22;1.95;;;3.10;99.90;;;;;;6232270;28;20522;-81
2022/12/30 07:56:45;;;;;;;5.03;3.63;;;3.10;99.90;;;;;;6230586;28;20412;-81
2022/12/30 07:59:47;;;;;;;2.75;1.90;;;3.10;99.90;;;;;;6229078;28;20045;-81
2022/12/30 08:02:49;;;;;;;3.58;1.85;;;3.10;99.90;;;;;;6230850;28;20045;-80
2022/12/30 08:05:52;;;;;;;3.58;1.98;;;3.20;99.90;;;;;;6230187;28;20061;-80
2022/12/30 08:08:53;;;;;;;4.85;2.45;;;3.30;99.90;;;;;;6230563;28;20052;-80
2022/12/30 08:11:55;;;;;;;8.00;2.38;;;3.30;99.90;;;;;;6230465;28;20710;-80
2022/12/30 08:14:57;;;;;;;6.32;3.33;;;3.40;99.90;;;;;;6228711;28;20042;-80
2022/12/30 08:17:59;;;;;;;6.05;3.25;;;3.60;99.90;;;;;;6227602;28;20053;-81
2022/12/30 08:21:03;;;;;;;2.90;2.67;;;3.90;99.90;;;;;;6227712;28;20519;-81
2022/12/30 08:24:05;;;;;;;3.92;2.55;;;3.90;99.90;;;;;;6226958;28;20046;-80
2022/12/30 08:27:07;;;;;;;3.47;2.03;;;4.00;99.90;;;;;;6225859;28;20053;-80
2022/12/30 08:30:10;;;;;;;3.35;2.03;;;4.10;99.90;;;;;;6227173;28;20096;-81
2022/12/30 08:33:12;;;;;;;5.47;2.75;;;4.20;99.90;;;;;;6224443;28;20050;-80
2022/12/30 08:36:17;;;;;;;7.22;2.42;;;4.30;99.90;;;;;;6227383;28;20057;-80
2022/12/30 08:39:19;;;;;;;4.55;2.83;;;4.50;99.90;;;;;;6170627;28;20047;-80
2022/12/30 08:42:21;;;;;;;1.65;1.55;;;4.60;99.90;;;;;;6217756;28;20045;-80
2022/12/30 08:45:22;;;;;;;5.57;2.15;;;4.80;99.90;;;;;;6222761;28;20046;-81
2022/12/30 08:48:24;;;;;;;3.90;1.65;;;5.00;99.90;;;;;;6223688;28;20507;-82
2022/12/30 08:51:28;;;;;;;3.03;1.98;;;5.20;99.90;;;;;;6213202;28;20523;-82
2022/12/30 08:54:29;;;;;;;5.40;3.10;;;5.40;99.90;;;;;;6195802;28;20050;-81
2022/12/30 08:57:31;;;;;;;6.03;2.92;;;5.60;99.90;;;;;;6203484;28;20042;-80
2022/12/30 09:00:33;;;;;;;4.63;2.50;;;5.80;99.90;;;;;;6206952;28;20043;-81
2022/12/30 09:03:35;;;;;;;4.35;2.88;;;6.00;99.90;;;;;;6201034;28;20042;-81
2022/12/30 09:06:40;;;;;;;4.63;3.25;;;6.20;99.90;;;;;;6207838;28;20057;-80
2022/12/30 09:09:42;;;;;;;4.55;2.25;;;6.30;99.90;;;;;;6205416;28;20046;-81
2022/12/30 09:12:43;;;;;;;5.70;2.17;;;6.50;99.90;;;;;;6209702;28;20038;-81
2022/12/30 09:15:45;;;;;;;8.00;2.00;;;6.70;99.90;;;;;;6218688;28;20495;-80
2022/12/30 09:18:47;;;;;;;5.38;2.03;;;6.80;99.90;;;;;;6225719;28;20053;-82
2022/12/30 09:21:51;;;;;;;2.33;1.98;;;7.10;99.90;;;;;;6226944;28;20053;-81
2022/12/30 09:24:53;;;;;;;2.97;2.15;;;7.30;99.90;;;;;;6227235;28;20042;-81
2022/12/30 09:27:54;;;;;;;4.30;2.25;;;7.50;99.90;;;;;;6225001;28;20530;-80
2022/12/30 09:30:56;;;;;;;5.10;1.50;;;7.70;99.90;;;;;;6226047;28;20526;-80
2022/12/30 09:33:58;;;;;;;7.25;2.55;;;7.90;99.90;;;;;;6227514;28;20040;-80
2022/12/30 09:37:01;;;;;;;8.43;2.60;;;8.20;99.90;;;;;;6225567;28;20046;-80
2022/12/30 09:40:02;;;;;;;3.25;2.30;;;8.40;99.90;;;;;;6223366;28;20046;-77
2022/12/30 09:43:16;;;;;;;4.70;2.70;;;8.60;99.90;;;;;;6223214;28;20053;-80
2022/12/30 09:46:30;;;;;;;3.05;1.80;;;8.70;99.90;;;;;;6217393;28;20419;-80
2022/12/30 09:49:38;;;;;;;4.05;1.92;;;8.90;99.90;;;;;;6226300;28;20066;-81
2022/12/30 09:52:52;;;;;;;9.32;2.15;;;9.00;99.90;;;;;;6224644;28;20052;-80
2022/12/30 09:55:57;;;;;;;3.90;1.83;;;9.20;99.90;;;;;;6225133;28;20050;-80
2022/12/30 09:59:04;;;;;;;6.50;2.65;;;9.50;99.90;;;;;;6220821;28;20547;-80
2022/12/30 10:02:19;;;;;;;2.25;1.50;;;9.70;99.90;;;;;;6205638;28;20367;-80
2022/12/30 10:05:40;;;;;;;8.82;3.30;;;10.00;99.90;;;;;;6202583;28;20061;-80
2022/12/30 10:09:11;;;;;;;8.90;2.92;;;10.40;99.90;;;;;;6199801;28;20423;-79
2022/12/30 10:12:33;;;;;;;3.22;2.10;;;10.70;99.90;;;;;;6204892;28;20053;-79
2022/12/30 10:15:49;;;;;;;4.82;1.90;;;11.00;99.90;;;;;;6209678;28;20039;-80
2022/12/30 10:19:07;;;;;;;2.30;1.13;;;11.20;99.90;;;;;;6201269;28;20072;-80
2022/12/30 10:22:14;;;;;;;3.47;1.40;;;11.30;99.90;;;;;;6203223;28;20057;-80
2022/12/30 10:25:26;;;;;;;5.10;1.65;;;11.30;99.90;;;;;;6206379;28;20061;-80
2022/12/30 10:28:35;;;;;;;5.53;2.60;;;11.40;99.90;;;;;;6203800;28;20050;-80
2022/12/30 10:31:38;;;;;;;3.85;1.65;;;11.60;99.90;;;;;;6204533;28;20046;-80
2022/12/30 10:34:40;;;;;;;2.72;1.85;;;11.80;99.90;;;;;;6207154;28;20046;-79
2022/12/30 10:37:42;;;;;;;12.82;6.13;;;11.90;99.90;;;;;;6204136;28;20057;-79
2022/12/30 10:40:58;;;;;;;5.43;2.13;;;12.00;99.90;;;;;;6204562;28;20047;-79
2022/12/30 10:44:12;;;;;;;3.50;1.75;;;12.00;99.90;;;;;;6221065;28;20046;-77
2022/12/30 10:47:30;;;;;;;4.35;1.70;;;12.10;99.90;;;;;;6224491;28;20038;-79
2022/12/30 10:50:36;;;;;;;2.93;1.67;;;12.10;99.90;;;;;;6209721;28;20054;-79
2022/12/30 10:53:39;;;;;;;5.15;3.50;;;12.10;99.90;;;;;;6208305;28;20317;-79
2022/12/30 10:56:44;;;;;;;1.95;1.38;;;12.10;99.90;;;;;;6206016;28;20062;-79
2022/12/30 10:59:47;;;;;;;4.80;1.98;;;12.20;99.90;;;;;;6210183;28;20077;-79
2022/12/30 11:02:56;;;;;;;14.70;9.70;;;12.20;99.90;;;;;;6209594;28;20050;-79
2022/12/30 11:05:59;;;;;;;4.47;2.30;;;12.20;99.90;;;;;;6206742;28;20061;-79
2022/12/30 11:09:17;;;;;;;6.45;2.20;;;12.30;99.90;;;;;;6204958;28;20074;-79
2022/12/30 11:15:53;;;;;;;4.07;2.25;;;12.50;99.90;;;;;;6212811;28;20050;-79
2022/12/30 11:18:56;;;;;;;3.58;1.98;;;12.50;99.90;;;;;;6203799;28;20432;-80
2022/12/30 11:22:03;;;;;;;4.07;2.28;;;12.50;99.90;;;;;;6202289;28;20042;-80
2022/12/30 11:25:17;;;;;;;5.20;3.10;;;12.40;99.90;;;;;;6202914;28;20069;-80
2022/12/30 11:28:23;;;;;;;9.73;5.93;;;12.40;99.90;;;;;;6202990;28;20057;-80
2022/12/30 11:31:32;;;;;;;4.57;2.72;;;12.20;99.90;;;;;;6206433;28;20038;-79
2022/12/30 11:34:37;;;;;;;12.70;6.70;;;12.10;99.90;;;;;;6205201;28;20065;-79
2022/12/30 11:37:39;;;;;;;10.73;5.43;;;12.00;99.90;;;;;;6205063;28;20057;-80
2022/12/30 11:40:41;;;;;;;6.85;4.75;;;11.90;99.90;;;;;;6202595;28;20053;-79
2022/12/30 11:43:44;;;;;;;6.95;3.40;;;11.90;99.90;;;;;;6215546;28;20042;-79
2022/12/30 11:46:50;;;;;;;4.35;3.30;;;11.80;99.90;;;;;;6222403;28;20057;-80
2022/12/30 11:49:53;;;;;;;7.43;3.30;;;11.70;99.90;;;;;;6228058;28;20129;-79
2022/12/30 11:53:02;;;;;;;7.63;3.20;;;11.70;99.90;;;;;;6226384;28;20124;-77
2022/12/30 11:56:04;;;;;;;5.28;4.45;;;11.60;99.90;;;;;;6225550;28;20085;-79
2022/12/30 11:59:13;;;;;;;7.80;3.40;;;11.50;99.90;;;;;;6225589;28;20041;-79
2022/12/30 12:02:21;;;;;;;11.70;5.20;;;11.50;99.90;;;;;;6216145;28;20078;-79
2022/12/30 12:05:29;;;;;;;6.55;4.28;;;11.40;99.90;;;;;;6206658;28;20057;-82
2022/12/30 12:08:34;;;;;;;5.65;3.25;;;11.40;99.90;;;;;;6206684;28;20050;-79
2022/12/30 12:11:42;;;;;;;4.50;3.88;;;11.30;99.90;;;;;;6201762;28;20526;-83
2022/12/30 12:14:59;;;;;;;6.13;5.15;;;11.20;99.90;;;;;;6213657;28;20049;-80
2022/12/30 12:18:05;;;;;;;5.47;4.45;;;11.20;99.90;;;;;;6225043;28;20065;-78
2022/12/30 12:21:16;;;;;;;10.05;6.40;;;11.30;99.90;;;;;;6223341;28;20099;-78
2022/12/30 12:24:23;;;;;;;8.98;4.75;;;11.30;99.90;;;;;;6222735;28;20068;-77
2022/12/30 12:27:26;;;;;;;7.57;4.38;;;11.30;99.90;;;;;;6221652;28;20038;-78
2022/12/30 12:30:46;;;;;;;4.95;4.05;;;11.30;99.90;;;;;;6222033;28;20060;-79
2022/12/30 12:33:52;;;;;;;5.88;3.70;;;11.30;99.90;;;;;;6222138;28;20053;-77
2022/12/30 12:37:05;;;;;;;4.30;2.95;;;11.20;99.90;;;;;;6220889;28;20434;-77
2022/12/30 12:40:24;;;;;;;7.55;2.97;;;11.30;99.90;;;;;;6197681;28;20057;-77
2022/12/30 12:43:39;;;;;;;5.20;3.85;;;11.40;99.90;;;;;;6212041;28;20045;-78
2022/12/30 12:46:57;;;;;;;4.97;2.83;;;11.60;99.90;;;;;;6215118;28;20037;-78
2022/12/30 12:50:18;;;;;;;11.60;7.28;;;12.00;99.90;;;;;;6221814;28;20075;-79
2022/12/30 12:53:46;;;;;;;5.18;3.42;;;12.30;99.90;;;;;;6221938;28;20061;-78
2022/12/30 12:57:01;;;;;;;6.47;3.08;;;12.40;99.90;;;;;;6226330;28;20053;-80
2022/12/30 13:00:09;;;;;;;4.57;2.10;;;12.40;99.90;;;;;;6229796;28;20440;-81
2022/12/30 13:03:26;;;;;;;;;;;12.40;99.90;;;;;;6222261;28;20065;-81
2022/12/30 13:06:37;;;;;;;3.70;1.90;;;12.40;99.90;;;;;;6212254;28;19932;-81
2022/12/30 13:10:04;;;;;;;3.72;1.83;;;12.40;99.90;;;;;;6205882;28;20138;-80
2022/12/30 13:13:12;;;;;;;4.13;1.77;;;12.40;99.90;;;;;;6215430;28;20042;-80
2022/12/30 13:16:17;;;;;;;3.75;1.23;;;12.30;99.90;;;;;;6221409;28;20404;-80
2022/12/30 13:19:29;;;;;;;4.75;2.53;;;12.30;99.90;;;;;;6229132;28;20042;-80
2022/12/30 13:22:36;;;;;;;2.30;1.52;;;12.20;99.90;;;;;;6229856;28;20054;-80
2022/12/30 13:25:40;;;;;;;5.35;3.78;;;12.10;99.90;;;;;;6230315;28;20034;-80
2022/12/30 13:28:48;;;;;;;7.18;3.22;;;12.10;99.90;;;;;;6227943;28;20049;-81
2022/12/30 13:31:55;;;;;;;5.32;2.58;;;12.00;99.90;;;;;;6230150;28;20060;-82
2022/12/30 13:35:08;;;;;;;2.78;1.73;;;11.90;99.90;;;;;;6231015;28;20049;-81
2022/12/30 13:38:21;;;;;;;7.28;1.80;;;11.80;99.90;;;;;;6230315;28;20526;-81
2022/12/30 13:41:42;;;;;;;2.08;1.52;;;11.60;99.90;;;;;;6230062;28;20049;-80
2022/12/30 13:44:47;;;;;;;10.05;5.15;;;11.60;99.90;;;;;;6217120;28;20053;-81
2022/12/30 13:47:50;;;;;;;8.07;3.63;;;11.50;99.90;;;;;;6229680;28;20507;-81
2022/12/30 13:51:01;;;;;;;6.93;2.97;;;11.40;99.90;;;;;;6228619;28;20180;-82
2022/12/30 13:54:15;;;;;;;8.32;3.17;;;11.20;99.90;;;;;;6230324;28;20050;-81
2022/12/30 13:57:29;;;;;;;3.83;2.38;;;11.10;99.90;;;;;;6231540;28;20076;-83
2022/12/30 14:00:33;;;;;;;3.58;2.63;;;11.00;99.90;;;;;;6232708;28;20816;-82
2022/12/30 14:03:36;;;;;;;7.45;3.15;;;10.90;99.90;;;;;;6225210;28;20057;-83
2022/12/30 14:06:43;;;;;;;7.68;3.40;;;10.80;99.90;;;;;;6208436;28;20535;-82
2022/12/30 14:10:24;;;;;;;4.25;2.80;;;10.70;99.90;;;;;;6219877;28;20056;-82
2022/12/30 14:13:37;;;;;;;3.88;2.38;;;10.60;99.90;;;;;;6226445;28;20041;-82
2022/12/30 14:17:00;;;;;;;14.50;6.65;;;10.50;99.90;;;;;;6225761;28;20053;-83
2022/12/30 14:20:06;;;;;;;13.70;6.40;;;10.40;99.90;;;;;;6226657;28;20049;-83
2022/12/30 14:23:41;;;;;;;6.53;3.70;;;10.30;99.90;;;;;;6230689;28;20677;-82
2022/12/30 14:26:43;;;;;;;6.45;3.60;;;10.30;99.90;;;;;;6230389;28;20049;-82
2022/12/30 14:29:45;;;;;;;3.20;2.83;;;10.20;99.90;;;;;;6230768;28;20499;-81
2022/12/30 14:32:56;;;;;;;10.75;2.85;;;10.10;99.90;;;;;;6232036;28;20048;-81
2022/12/30 14:36:04;;;;;;;5.28;2.20;;;10.10;99.90;;;;;;6230698;28;20045;-81
2022/12/30 14:39:15;;;;;;;8.10;3.03;;;10.10;99.90;;;;;;6230402;28;20049;-81
2022/12/30 14:42:24;;;;;;;21.58;12.77;;;10.00;99.90;;;;;;6223602;28;20046;-80
2022/12/30 14:45:27;;;;;;;14.15;6.68;;;10.00;99.90;;;;;;6218048;28;20046;-82
2022/12/30 14:49:12;;;;;;;13.13;6.63;;;10.00;99.90;;;;;;6205755;28;20050;-82
2022/12/30 14:52:17;;;;;;;8.25;4.60;;;9.90;99.90;;;;;;6190673;28;20174;-80
2022/12/30 14:55:22;;;;;;;9.45;4.93;;;9.90;99.90;;;;;;6206889;28;20061;-83
2022/12/30 14:58:24;;;;;;;12.13;7.53;;;9.80;99.90;;;;;;6204789;28;20057;-82
2022/12/30 15:01:26;;;;;;;12.60;5.45;;;9.80;99.90;;;;;;6207046;28;20073;-82
2022/12/30 15:04:27;;;;;;;8.80;5.45;;;9.80;99.90;;;;;;6212143;28;20057;-83
2022/12/30 15:07:34;;;;;;;10.15;4.68;;;9.80;99.90;;;;;;6227201;28;20046;-84
2022/12/30 15:10:41;;;;;;;6.93;3.47;;;9.70;99.90;;;;;;6237190;28;20045;-81
2022/12/30 15:13:45;;;;;;;10.57;4.75;;;9.70;99.90;;;;;;6228952;28;20050;-82
2022/12/30 15:17:06;;;;;;;7.72;5.05;;;9.70;99.90;;;;;;6227071;28;20408;-82
2022/12/30 15:20:26;;;;;;;6.60;4.25;;;9.60;99.90;;;;;;6229036;28;20050;-82
2022/12/30 15:23:29;;;;;;;9.10;4.85;;;9.60;99.90;;;;;;6230304;28;20542;-82
2022/12/30 15:26:34;;;;;;;9.88;4.32;;;9.60;99.90;;;;;;6230563;28;20049;-82
2022/12/30 15:29:36;;;;;;;10.55;6.38;;;9.60;99.90;;;;;;6229748;28;20574;-82
2022/12/30 15:32:38;;;;;;;15.25;7.57;;;9.60;99.90;;;;;;6230213;28;20045;-82
2022/12/30 15:35:41;;;;;;;17.27;13.55;;;9.60;99.90;;;;;;6231544;28;20042;-82
2022/12/30 15:38:43;;;;;;;18.73;14.60;;;9.60;99.90;;;;;;6229382;28;20041;-80
2022/12/30 15:41:47;;;;;;;17.00;10.60;;;9.60;99.90;;;;;;6229645;28;20518;-83
2022/12/30 15:44:50;;;;;;;15.95;9.07;;;9.70;99.90;;;;;;6221327;28;20068;-82
2022/12/30 15:47:56;;;;;;;11.60;8.82;;;9.60;99.90;;;;;;6228622;28;20049;-79
2022/12/30 15:51:04;;;;;;;11.23;6.63;;;9.60;99.90;;;;;;6227275;28;20511;-80
2022/12/30 15:54:15;;;;;;;12.63;9.15;;;9.60;99.90;;;;;;6231196;28;20069;-81
2022/12/30 15:57:21;;;;;;;15.40;8.85;;;9.60;99.90;;;;;;6226980;28;20392;-80
2022/12/30 16:00:25;;;;;;;10.77;8.95;;;9.60;99.90;;;;;;6226785;28;20069;-82
2022/12/30 16:03:27;;;;;;;10.27;8.38;;;9.60;99.90;;;;;;6226062;28;20049;-81
2022/12/30 16:06:29;;;;;;;13.32;9.48;;;9.60;99.90;;;;;;6213788;28;20054;-82
2022/12/30 16:09:38;;;;;;;17.73;11.93;;;9.70;99.90;;;;;;6203104;28;20057;-81
2022/12/30 16:12:46;;;;;;;17.02;14.10;;;9.70;99.90;;;;;;6212627;28;20046;-81
2022/12/30 16:15:47;;;;;;;15.37;12.40;;;9.60;99.90;;;;;;6220921;28;20056;-81
2022/12/30 16:19:13;;;;;;;15.25;10.93;;;9.50;99.90;;;;;;6228944;28;20049;-81
2022/12/30 16:22:28;;;;;;;11.05;9.65;;;9.50;99.90;;;;;;6229334;28;20042;-81
2022/12/30 16:25:34;;;;;;;19.27;12.95;;;9.50;99.90;;;;;;6229498;28;20045;-81
2022/12/30 16:28:39;;;;;;;16.08;9.40;;;9.50;99.90;;;;;;6228420;28;20072;-81
2022/12/30 16:31:41;;;;;;;10.48;8.20;;;9.50;99.90;;;;;;6229887;28;20053;-82
2022/12/30 16:34:43;;;;;;;19.27;10.38;;;9.50;99.90;;;;;;6224806;28;20423;-81
2022/12/30 16:37:45;;;;;;;11.45;8.40;;;9.50;99.90;;;;;;6229039;28;20060;-81
2022/12/30 16:40:46;;;;;;;10.27;7.78;;;9.50;99.90;;;;;;6229849;28;20061;-81
2022/12/30 16:43:50;;;;;;;9.82;5.55;;;9.50;99.90;;;;;;6227568;28;20051;-82
2022/12/30 16:46:52;;;;;;;8.63;5.57;;;9.60;99.90;;;;;;6218130;28;20049;-81
2022/12/30 16:49:54;;;;;;;7.50;4.78;;;9.60;99.90;;;;;;6205285;28;20074;-81
2022/12/30 16:52:57;;;;;;;3.80;2.75;;;9.70;99.90;;;;;;6203580;28;20046;-80
2022/12/30 16:55:59;;;;;;;4.38;2.67;;;9.80;99.90;;;;;;6203907;28;20050;-81
2022/12/30 16:59:02;;;;;;;2.95;2.35;;;9.90;99.90;;;;;;6217300;28;20048;-81
2022/12/30 17:02:04;;;;;;;2.47;1.80;;;10.10;99.90;;;;;;6228343;28;20046;-82
2022/12/30 17:05:06;;;;;;;6.85;3.45;;;10.30;99.90;;;;;;6229001;28;20429;-80
2022/12/30 17:08:15;;;;;;;2.28;1.52;;;10.50;99.90;;;;;;6203673;28;20518;-83
2022/12/30 17:11:20;;;;;;;1.77;1.50;;;10.60;99.90;;;;;;6204879;28;20038;-83
2022/12/30 17:14:25;;;;;;;2.60;1.50;;;10.80;99.90;;;;;;6213991;28;20047;-82
2022/12/30 17:17:26;;;;;;;1.42;0.90;;;10.90;99.90;;;;;;6229256;28;20073;-83
2022/12/30 17:20:29;;;;;;;2.28;1.70;;;11.00;99.90;;;;;;6229618;28;20050;-82
2022/12/30 17:23:35;;;;;;;4.18;1.67;;;11.20;99.90;;;;;;6229730;28;20050;-82
2022/12/30 17:26:37;;;;;;;2.83;1.27;;;11.20;99.90;;;;;;6230101;28;20053;-82
2022/12/30 17:29:40;;;;;;;1.90;1.23;;;11.30;99.90;;;;;;6230289;28;20053;-82
2022/12/30 17:32:44;;;;;;;2.13;1.60;;;11.30;99.90;;;;;;6234609;28;20049;-82
2022/12/30 17:35:46;;;;;;;3.17;1.77;;;11.30;99.90;;;;;;6235036;28;20419;-81
2022/12/30 17:38:50;;;;;;;2.95;1.77;;;11.40;99.90;;;;;;6232678;28;20053;-82
2022/12/30 17:41:51;;;;;;;1.30;1.20;;;11.50;99.90;;;;;;6233365;28;20050;-82
2022/12/30 17:44:54;;;;;;;1.13;0.95;;;11.50;99.90;;;;;;6225337;28;20045;-82
2022/12/30 17:47:56;;;;;;;2.05;1.30;;;11.60;99.90;;;;;;6234180;28;20042;-82
2022/12/30 17:50:58;;;;;;;2.38;1.27;;;11.60;99.90;;;;;;6233430;28;20052;-83
2022/12/30 17:53:59;;;;;;;1.17;1.08;;;11.60;99.90;;;;;;6233169;28;20149;-82
2022/12/30 17:57:02;;;;;;;3.05;1.90;;;11.60;99.90;;;;;;6233028;28;20049;-82
2022/12/30 18:00:09;;;;;;;1.30;0.88;;;11.60;99.90;;;;;;6233469;28;20060;-83
2022/12/30 18:03:12;;;;;;;1.70;1.17;;;11.80;99.90;;;;;;6234356;28;20042;-82
2022/12/30 18:06:17;;;;;;;1.13;0.98;;;11.90;99.90;;;;;;6234322;28;20312;-82
2022/12/30 18:09:18;;;;;;;0.88;0.88;;;12.00;99.90;;;;;;6229468;28;20159;-82
2022/12/30 18:12:21;;;;;;;3.20;2.70;;;12.10;99.90;;;;;;6237969;28;20056;-82
2022/12/30 18:15:24;;;;;;;1.30;1.20;;;12.20;99.90;;;;;;6225741;28;20045;-81
2022/12/30 18:18:26;;;;;;;5.63;1.30;;;12.30;99.90;;;;;;6226539;28;20061;-82
2022/12/30 18:21:27;;;;;;;0.70;0.70;;;12.30;99.90;;;;;;6228543;28;20053;-81
2022/12/30 18:24:29;;;;;;;1.20;1.10;;;12.30;99.90;;;;;;6230197;28;20042;-81
2022/12/30 18:27:31;;;;;;;1.13;0.90;;;12.30;99.90;;;;;;6223260;28;21295;-81
2022/12/30 18:30:34;;;;;;;1.00;0.90;;;12.30;99.90;;;;;;6226069;28;20058;-80
2022/12/30 18:33:36;;;;;;;1.73;0.90;;;12.40;99.90;;;;;;6226762;28;20046;-81
2022/12/30 18:36:38;;;;;;;1.02;0.70;;;12.50;99.90;;;;;;6226894;28;20053;-81
2022/12/30 18:39:39;;;;;;;1.10;1.00;;;12.50;99.90;;;;;;6225698;28;20683;-80
2022/12/30 18:42:41;;;;;;;3.30;1.55;;;12.50;99.90;;;;;;6222712;28;20046;-80
2022/12/30 18:45:44;;;;;;;10.00;5.63;;;12.50;99.90;;;;;;6212777;28;20465;-80
2022/12/30 18:48:46;;;;;;;0.88;0.88;;;12.50;99.90;;;;;;6202280;28;20047;-80
2022/12/30 18:51:48;;;;;;;1.40;1.30;;;12.50;99.90;;;;;;6210550;28;20172;-83
2022/12/30 18:54:50;;;;;;;2.08;1.33;;;12.50;99.90;;;;;;6226324;28;20038;-82
2022/12/30 18:57:53;;;;;;;1.30;1.10;;;12.50;99.90;;;;;;6225998;28;20053;-81
2022/12/30 19:00:56;;;;;;;1.50;1.15;;;12.50;99.90;;;;;;6225944;28;20056;-80
2022/12/30 19:03:59;;;;;;;2.72;1.08;;;12.50;99.90;;;;;;6222432;28;20064;-80
2022/12/30 19:07:00;;;;;;;1.50;1.30;;;12.50;99.90;;;;;;6225830;28;20543;-80
2022/12/30 19:10:02;;;;;;;1.98;1.10;;;12.50;99.90;;;;;;6226083;28;20060;-80
2022/12/30 19:13:04;;;;;;;3.35;1.00;;;12.50;99.90;;;;;;6219907;28;20045;-81
2022/12/30 19:16:11;;;;;;;1.20;1.10;;;12.50;99.90;;;;;;6210029;28;20054;-81
2022/12/30 19:19:15;;;;;;;1.30;1.20;;;12.50;99.90;;;;;;6201829;28;20045;-80
2022/12/30 19:22:16;;;;;;;1.33;1.23;;;12.50;99.90;;;;;;6202327;28;20119;-80
2022/12/30 19:25:18;;;;;;;2.58;2.00;;;12.60;99.90;;;;;;6202543;28;20061;-80
2022/12/30 19:28:20;;;;;;;1.30;1.20;;;12.60;99.90;;;;;;6200442;28;20046;-81
2022/12/30 19:31:25;;;;;;;2.78;1.35;;;12.60;99.90;;;;;;6200996;28;20539;-80
2022/12/30 19:34:27;;;;;;;1.25;1.02;;;12.60;99.90;;;;;;6202392;28;20050;-81
2022/12/30 19:37:29;;;;;;;2.10;1.05;;;12.70;99.90;;;;;;6201525;28;20051;-80
2022/12/30 19:40:31;;;;;;;1.60;1.27;;;12.70;99.90;;;;;;6201023;28;20046;-80
2022/12/30 19:43:32;;;;;;;3.33;1.77;;;12.80;99.90;;;;;;6207923;28;20072;-81
2022/12/30 19:46:36;;;;;;;1.42;1.20;;;12.90;99.90;;;;;;6218860;28;20081;-81
2022/12/30 19:49:37;;;;;;;2.22;1.20;;;12.90;99.90;;;;;;6225138;28;20423;-81
2022/12/30 19:52:39;;;;;;;2.92;1.02;;;13.00;99.90;;;;;;6225744;28;20045;-81
2022/12/30 19:55:41;;;;;;;3.50;0.90;;;13.10;99.90;;;;;;6226164;28;20046;-80
2022/12/30 19:58:43;;;;;;;0.82;0.80;;;13.10;99.90;;;;;;6225010;28;20040;-81
2022/12/30 20:01:46;;;;;;;1.73;1.45;;;13.20;99.90;;;;;;6225560;28;20061;-83
2022/12/30 20:04:49;;;;;;;6.05;3.33;;;13.10;99.90;;;;;;6225564;28;20056;-83
2022/12/30 20:07:50;;;;;;;1.50;1.00;;;13.10;99.90;;;;;;6226360;28;20045;-81
2022/12/30 20:10:52;;;;;;;2.30;1.60;;;13.00;99.90;;;;;;6217655;28;20048;-83
2022/12/30 20:13:56;;;;;;;3.35;1.25;;;13.00;99.90;;;;;;6221654;28;20039;-80
2022/12/30 20:17:00;;;;;;;2.00;1.60;;;12.90;99.90;;;;;;6223173;28;20054;-80
2022/12/30 20:20:02;;;;;;;1.67;1.20;;;12.80;99.90;;;;;;6225679;28;20046;-82
2022/12/30 20:23:04;;;;;;;1.50;1.20;;;12.80;99.90;;;;;;6226424;28;20038;-81
2022/12/30 20:26:06;;;;;;;2.50;1.63;;;12.80;99.90;;;;;;6224773;28;20054;-82
2022/12/30 20:29:12;;;;;;;2.90;1.58;;;12.80;99.90;;;;;;6225179;28;20081;-79
2022/12/30 20:32:15;;;;;;;1.60;1.50;;;12.80;99.90;;;;;;6225700;28;20050;-82
2022/12/30 20:35:17;;;;;;;3.60;1.50;;;12.80;99.90;;;;;;6225323;28;20042;-81
2022/12/30 20:38:19;;;;;;;5.03;2.13;;;12.70;99.90;;;;;;6217948;28;20412;-81
2022/12/30 20:41:21;;;;;;;1.52;1.42;;;12.90;99.90;;;;;;6203012;28;20061;-81
2022/12/30 20:44:23;;;;;;;2.38;1.48;;;13.00;99.90;;;;;;6216454;28;20076;-81
2022/12/30 20:47:26;;;;;;;1.27;1.15;;;13.10;99.90;;;;;;6199533;28;20054;-83
2022/12/30 20:50:28;;;;;;;1.85;1.45;;;13.10;99.90;;;;;;6200624;28;20132;-80
2022/12/30 20:53:29;;;;;;;4.07;1.73;;;13.20;99.90;;;;;;6200098;28;20046;-81
2022/12/30 20:56:32;;;;;;;2.30;1.42;;;13.20;99.90;;;;;;6216634;28;20068;-81
2022/12/30 20:59:33;;;;;;;1.38;1.15;;;13.20;99.90;;;;;;6223839;28;20056;-81
2022/12/30 21:02:36;;;;;;;4.00;1.42;;;13.20;99.90;;;;;;6222965;28;20057;-81
2022/12/30 21:05:40;;;;;;;1.25;1.00;;;13.30;99.90;;;;;;6199132;28;20061;-81
2022/12/30 21:08:42;;;;;;;1.02;0.93;;;13.40;99.90;;;;;;6199966;28;20504;-80
2022/12/30 21:11:45;;;;;;;3.00;1.33;;;13.50;99.90;;;;;;6207167;28;20053;-80
2022/12/30 21:14:46;;;;;;;2.33;1.23;;;13.60;99.90;;;;;;6212390;28;20053;-81
2022/12/30 21:17:49;;;;;;;2.40;1.63;;;13.60;99.90;;;;;;6227928;28;20054;-81
2022/12/30 21:20:52;;;;;;;1.30;1.20;;;13.70;99.90;;;;;;6224055;28;20060;-83
2022/12/30 21:23:54;;;;;;;1.30;1.20;;;13.70;99.90;;;;;;6224491;28;20050;-80
2022/12/30 21:26:56;;;;;;;2.38;1.23;;;13.80;99.90;;;;;;6224855;28;20046;-81
2022/12/30 21:29:57;;;;;;;2.20;0.90;;;13.90;99.90;;;;;;6223272;28;20076;-79
2022/12/30 21:33:00;;;;;;;2.33;1.35;;;13.90;99.90;;;;;;6225300;28;20056;-81
2022/12/30 21:36:07;;;;;;;1.70;1.13;;;13.90;99.90;;;;;;6223057;28;20045;-79
2022/12/30 22:03:01;;;;;;;2.83;0.60;;;14.30;99.90;;;;;;6198265;28;20420;-79
2022/12/30 22:06:04;;;;;;;1.00;0.88;;;14.30;99.90;;;;;;6199482;28;20054;-79
2022/12/30 22:09:06;;;;;;;1.00;0.90;;;14.30;99.90;;;;;;6198227;28;20050;-80
2022/12/30 22:12:08;;;;;;;1.40;1.02;;;14.50;99.90;;;;;;6208847;28;20045;-80
2022/12/30 22:15:11;;;;;;;0.57;0.50;;;14.40;99.90;;;;;;6208427;28;20049;-81
2022/12/30 22:18:14;;;;;;;1.30;0.82;;;14.50;99.90;;;;;;6200196;28;20050;-79
2022/12/30 22:21:17;;;;;;;2.53;1.00;;;14.50;99.90;;;;;;6202290;28;20050;-80
2022/12/30 22:24:18;;;;;;;1.45;0.90;;;14.50;99.90;;;;;;6201917;28;20050;-79
2022/12/30 22:27:20;;;;;;;1.27;0.85;;;14.60;99.90;;;;;;6200737;28;20053;-80
2022/12/30 22:30:23;;;;;;;2.50;1.08;;;14.60;99.90;;;;;;6202502;28;20057;-80
2022/12/30 22:33:25;;;;;;;1.08;0.85;;;14.60;99.90;;;;;;6203120;28;20562;-79
2022/12/30 22:36:28;;;;;;;1.92;1.15;;;14.60;99.90;;;;;;6202526;28;20096;-80
2022/12/30 22:39:30;;;;;;;1.98;0.60;;;14.70;99.90;;;;;;6202993;28;20377;-80
2022/12/30 22:42:32;;;;;;;0.95;0.70;;;14.70;99.90;;;;;;6211019;28;20516;-80